Time;durP1;ratioP1;P1;durP2;ratioP2;P2;SDS_P1;SDS_P2;PMS_P1;PMS_P2;Temp;Humidity;BMP_temperature;BMP_pressure;BME280_temperature;BME280_humidity;BME280_pressure;Samples;Min_cycle;Max_cycle;Signal;HPM_P1;HPM_P2
2022/01/31 00:02:05;;;;;;;4.63;4.43;;;;;;;2.54;80.10;101206.16;6048609;23;20014;-74
2022/01/31 00:04:32;;;;;;;3.38;3.28;;;;;;;2.73;80.35;101222.38;6071056;23;20069;-74
2022/01/31 00:06:58;;;;;;;4.72;4.53;;;;;;;3.08;79.81;101267.75;6051289;23;20022;-74
2022/01/31 00:09:25;;;;;;;3.00;2.90;;;;;;;2.91;79.28;101225.66;6061203;23;20013;-73
2022/01/31 00:11:57;;;;;;;3.28;3.17;;;;;;;2.82;79.70;101198.09;6053394;23;20021;-74
2022/01/31 00:15:03;;;;;;;3.20;3.10;;;;;;;3.18;79.86;101221.84;6098259;23;20069;-73
2022/01/31 00:17:17;;;;;;;3.15;3.05;;;;;;;1.71;78.92;100955.13;6076699;23;20529;-74
2022/01/31 00:19:44;;;;;;;2.80;2.70;;;;;;;2.65;79.30;101091.19;6117074;23;20097;-74
2022/01/31 00:22:12;;;;;;;4.85;4.65;;;;;;;3.18;79.45;101182.94;6095604;23;20068;-74
2022/01/31 00:24:39;;;;;;;2.97;2.88;;;;;;;3.14;79.81;101195.06;6072692;23;20037;-74
2022/01/31 00:27:08;;;;;;;4.60;4.40;;;;;;;3.11;79.87;101195.13;6089010;23;20088;-74
2022/01/31 00:29:34;;;;;;;2.75;2.65;;;;;;;2.91;80.09;101163.44;6103714;23;20553;-73
2022/01/31 00:32:01;;;;;;;4.65;4.45;;;;;;;2.77;79.55;101119.53;6086179;23;20032;-74
2022/01/31 00:34:28;;;;;;;2.95;2.85;;;;;;;2.85;79.68;101132.41;6085799;23;20081;-73
2022/01/31 00:36:54;;;;;;;3.20;3.10;;;;;;;2.96;79.79;101174.59;6117024;23;20033;-73
2022/01/31 00:39:21;;;;;;;3.30;3.20;;;;;;;2.59;79.45;101061.88;6092176;23;20021;-73
2022/01/31 00:41:47;;;;;;;2.97;2.88;;;;;;;3.04;79.27;101112.25;6086430;23;20009;-73
2022/01/31 00:44:28;;;;;;;2.97;2.88;;;;;;;3.22;79.26;101140.50;6087558;23;20014;-73
2022/01/31 00:47:02;;;;;;;3.38;3.28;;;;;;;2.81;79.71;101069.38;6085880;23;20018;-73
2022/01/31 00:52:00;;;;;;;4.18;4.00;;;;;;;2.54;79.13;101036.91;6084672;23;20074;-74
2022/01/31 00:54:27;;;;;;;3.53;3.40;;;;;;;2.78;79.53;101059.88;6107213;23;20097;-75
2022/01/31 00:56:53;;;;;;;3.00;2.90;;;;;;;2.99;79.36;101073.44;6083873;23;20054;-73
2022/01/31 00:59:19;;;;;;;3.13;3.03;;;;;;;3.27;80.36;101111.91;6102515;23;20026;-74
2022/01/31 01:01:47;;;;;;;3.20;3.10;;;;;;;2.90;79.85;101029.50;6090500;23;20022;-72
2022/01/31 01:04:13;;;;;;;3.92;3.78;;;;;;;2.74;80.17;100992.59;6116541;23;20016;-75
2022/01/31 01:06:40;;;;;;;3.10;3.00;;;;;;;3.36;79.41;101071.09;6089329;23;20483;-75
2022/01/31 01:09:08;;;;;;;5.07;4.88;;;;;;;3.43;79.97;101058.91;6087371;23;20014;-72
2022/01/31 01:11:35;;;;;;;3.25;3.13;;;;;;;3.44;79.77;101041.59;6092699;23;20037;-74
2022/01/31 01:14:02;;;;;;;4.65;4.45;;;;;;;3.50;80.32;101020.72;6119611;23;20160;-72
2022/01/31 01:16:29;;;;;;;3.10;3.00;;;;;;;3.54;80.54;101025.84;6070062;23;20025;-72
2022/01/31 01:19:00;;;;;;;5.05;4.85;;;;;;;3.49;80.23;101006.91;6084313;23;20109;-75
2022/01/31 01:21:27;;;;;;;3.20;3.10;;;;;;;3.63;80.10;100996.28;6098748;23;20020;-72
2022/01/31 01:23:53;;;;;;;3.20;3.10;;;;;;;3.40;79.42;100937.88;6088143;23;20034;-76
2022/01/31 01:26:19;;;;;;;3.20;3.10;;;;;;;3.71;79.84;100970.16;6113248;23;20081;-74
2022/01/31 01:28:46;;;;;;;2.97;2.88;;;;;;;3.73;80.43;100955.44;6083844;23;20238;-75
2022/01/31 01:31:14;;;;;;;4.45;4.25;;;;;;;3.79;79.75;100945.78;6116733;23;20318;-74
2022/01/31 01:33:41;;;;;;;3.10;3.00;;;;;;;3.12;79.10;100807.84;6086673;23;20538;-74
2022/01/31 01:36:08;;;;;;;4.75;4.55;;;;;;;3.92;78.84;100916.97;6088739;23;20078;-74
2022/01/31 01:38:35;;;;;;;3.08;2.97;;;;;;;3.93;79.35;100903.97;6116593;23;20043;-76
2022/01/31 01:41:02;;;;;;;4.95;4.75;;;;;;;3.93;78.79;100895.28;6092399;23;20109;-74
2022/01/31 01:43:32;;;;;;;3.20;3.10;;;;;;;3.96;79.45;100900.44;6111860;23;20016;-73
2022/01/31 01:46:00;;;;;;;4.95;4.75;;;;;;;3.38;78.70;100777.94;6088550;23;20046;-72
2022/01/31 01:48:26;;;;;;;3.13;3.03;;;;;;;3.70;78.87;100800.59;6109844;23;20088;-75
2022/01/31 01:50:54;;;;;;;3.10;3.00;;;;;;;3.49;78.55;100760.44;6088388;23;20053;-75
2022/01/31 01:53:20;;;;;;;3.30;3.20;;;;;;;4.08;78.59;100834.38;6105505;23;20097;-73
2022/01/31 01:55:47;;;;;;;3.03;2.92;;;;;;;3.93;78.53;100802.69;6086747;23;20069;-73
2022/01/31 01:58:16;;;;;;;4.15;3.95;;;;;;;4.08;79.18;100811.00;6091567;23;20017;-73
2022/01/31 02:00:51;;;;;;;3.15;3.05;;;;;;;4.09;78.73;100823.97;6088909;23;20018;-73
2022/01/31 02:03:20;;;;;;;3.00;2.90;;;;;;;4.14;78.02;100785.75;6110433;23;20077;-72
2022/01/31 02:05:47;;;;;;;3.15;3.05;;;;;;;3.79;77.85;100727.72;6090089;23;20026;-73
2022/01/31 02:08:17;;;;;;;4.15;3.95;;;;;;;4.11;78.77;100754.66;6089310;23;20021;-75
2022/01/31 02:10:44;;;;;;;3.00;2.90;;;;;;;3.84;78.76;100699.06;6090884;23;20535;-73
2022/01/31 02:13:11;;;;;;;4.90;4.70;;;;;;;3.73;78.59;100647.41;6045975;23;20095;-73
2022/01/31 02:15:39;;;;;;;3.10;3.00;;;;;;;4.07;78.71;100711.47;6060109;23;20058;-73
2022/01/31 02:18:06;;;;;;;3.75;3.65;;;;;;;4.26;79.01;100724.00;6059455;23;20640;-73
2022/01/31 02:20:37;;;;;;;3.22;3.13;;;;;;;3.84;79.70;100649.72;6081189;23;20018;-73
2022/01/31 02:23:06;;;;;;;4.47;4.28;;;;;;;4.04;80.44;100670.00;6078948;23;20032;-73
2022/01/31 02:25:34;;;;;;;3.17;3.08;;;;;;;3.69;81.34;100612.03;6057948;23;20033;-73
2022/01/31 02:28:00;;;;;;;4.88;4.68;;;;;;;4.06;82.28;100659.56;6082904;23;20637;-73
2022/01/31 02:30:27;;;;;;;3.10;3.00;;;;;;;3.83;82.78;100624.69;6060536;23;20089;-74
2022/01/31 02:32:53;;;;;;;3.22;3.13;;;;;;;4.11;83.79;100676.75;6055759;23;20463;-73
2022/01/31 02:35:20;;;;;;;3.10;3.00;;;;;;;4.11;84.44;100665.47;6086325;23;20024;-73
2022/01/31 02:37:46;;;;;;;3.47;3.28;;;;;;;2.98;86.64;100493.59;6065337;23;20569;-73
2022/01/31 02:40:12;;;;;;;4.05;3.85;;;;;;;3.65;87.19;100594.84;6093432;23;20495;-73
2022/01/31 02:42:39;;;;;;;3.17;3.08;;;;;;;4.02;87.45;100622.44;6060017;23;20020;-73
2022/01/31 02:45:06;;;;;;;5.28;5.07;;;;;;;3.98;89.31;100633.81;6086398;23;20041;-74
2022/01/31 02:47:38;;;;;;;3.50;3.40;;;;;;;3.29;89.54;100517.06;6063208;23;20028;-73
2022/01/31 02:50:07;;;;;;;4.68;4.47;;;;;;;3.79;90.47;100617.88;6054238;23;20029;-73
2022/01/31 02:52:36;;;;;;;2.90;2.80;;;;;;;3.73;91.18;100592.06;6091901;23;20038;-73
2022/01/31 02:55:04;;;;;;;4.95;4.75;;;;;;;3.05;91.62;100490.00;6052159;23;20085;-74
2022/01/31 02:57:31;;;;;;;2.97;2.88;;;;;;;3.70;93.28;100595.56;6080335;23;20017;-73
2022/01/31 02:59:59;;;;;;;4.55;4.35;;;;;;;3.51;94.58;100574.44;6058444;23;20096;-72
2022/01/31 03:02:26;;;;;;;3.20;3.10;;;;;;;2.85;95.03;100479.25;6090211;23;20063;-73
2022/01/31 03:04:52;;;;;;;3.10;3.00;;;;;;;2.35;95.46;100400.09;6058158;23;20014;-73
2022/01/31 03:07:19;;;;;;;3.10;3.00;;;;;;;3.53;96.16;100572.66;6087526;23;20021;-73
2022/01/31 03:09:45;;;;;;;3.05;2.95;;;;;;;3.45;96.44;100579.78;6053832;23;20105;-73
2022/01/31 03:12:13;;;;;;;4.40;4.20;;;;;;;3.11;96.78;100520.09;6081959;23;20179;-73
2022/01/31 03:14:42;;;;;;;3.28;3.17;;;;;;;3.27;96.04;100524.03;6088925;23;20036;-72
2022/01/31 03:17:09;;;;;;;4.80;4.60;;;;;;;3.02;96.61;100458.09;6113784;23;20040;-72
2022/01/31 03:19:38;;;;;;;3.10;3.00;;;;;;;3.26;97.36;100513.69;6063515;23;20105;-73
2022/01/31 03:22:06;;;;;;;5.05;4.85;;;;;;;3.34;98.14;100532.50;6088803;23;20816;-73
2022/01/31 03:24:33;;;;;;;3.00;2.90;;;;;;;2.82;98.14;100435.25;6078679;23;20494;-73
2022/01/31 03:27:00;;;;;;;4.32;4.13;;;;;;;2.96;98.59;100457.34;6112664;23;20683;-72
2022/01/31 03:29:27;;;;;;;3.25;3.15;;;;;;;2.64;98.55;100406.31;6076559;23;20018;-73
2022/01/31 03:31:53;;;;;;;3.22;3.13;;;;;;;3.27;98.12;100485.13;6088652;23;20020;-74
2022/01/31 03:34:20;;;;;;;3.10;3.00;;;;;;;2.88;98.68;100438.53;6092912;23;21533;-74
2022/01/31 03:36:47;;;;;;;3.00;2.90;;;;;;;2.81;99.52;100411.09;6121407;23;20434;-73
2022/01/31 03:39:13;;;;;;;4.30;4.10;;;;;;;3.28;99.06;100496.34;6088876;23;20018;-73
2022/01/31 03:41:39;;;;;;;3.03;2.92;;;;;;;3.12;99.79;100468.19;6096820;23;20162;-73
2022/01/31 03:44:06;;;;;;;4.60;4.40;;;;;;;3.24;100.00;100481.75;6111277;23;20077;-72
2022/01/31 03:46:34;;;;;;;3.10;3.00;;;;;;;3.22;100.00;100475.75;6061688;23;20018;-73
2022/01/31 03:49:02;;;;;;;4.68;4.47;;;;;;;2.20;100.00;100315.00;6068699;23;20014;-73
2022/01/31 03:51:28;;;;;;;2.90;2.80;;;;;;;2.64;100.00;100384.75;6110818;23;20013;-73
2022/01/31 03:53:55;;;;;;;2.67;2.58;;;;;;;2.02;100.00;100242.97;6089499;23;20613;-73
2022/01/31 03:56:21;;;;;;;3.10;3.00;;;;;;;2.68;100.00;100350.09;6083507;23;20074;-73
2022/01/31 03:58:48;;;;;;;3.30;3.20;;;;;;;2.80;100.00;100344.59;6096345;23;20820;-72
2022/01/31 04:01:14;;;;;;;4.20;4.00;;;;;;;2.72;100.00;100336.16;6090490;23;20020;-73
2022/01/31 04:03:41;;;;;;;3.22;3.13;;;;;;;2.90;100.00;100340.03;6091207;23;20112;-73
2022/01/31 04:06:08;;;;;;;4.75;4.55;;;;;;;2.87;100.00;100307.28;6063408;23;20018;-74
2022/01/31 04:08:34;;;;;;;2.92;2.83;;;;;;;3.68;100.00;100439.03;6087970;23;20022;-73
2022/01/31 04:11:00;;;;;;;4.47;4.28;;;;;;;3.66;100.00;100424.41;6110426;23;20013;-72
2022/01/31 04:13:27;;;;;;;2.97;2.88;;;;;;;3.72;100.00;100439.81;6077050;23;20018;-73
2022/01/31 04:15:53;;;;;;;3.20;3.10;;;;;;;3.27;100.00;100347.66;6087120;23;20631;-74
2022/01/31 04:18:20;;;;;;;3.40;3.30;;;;;;;3.79;100.00;100441.34;6048473;23;20026;-75
2022/01/31 04:20:46;;;;;;;3.08;2.97;;;;;;;3.96;100.00;100440.84;6061893;23;20024;-72
2022/01/31 04:23:16;;;;;;;4.43;4.22;;;;;;;3.83;100.00;100409.22;6091331;23;20599;-73
2022/01/31 04:25:53;;;;;;;2.90;2.80;;;;;;;3.59;100.00;100369.25;6058413;23;20030;-73
2022/01/31 04:28:44;;;;;;;3.05;2.95;;;;;;;4.12;100.00;100428.28;6105571;23;20010;-73
2022/01/31 04:33:41;;;;;;;2.90;2.80;;;;;;;3.52;100.00;100334.84;6093480;23;20022;-73
2022/01/31 04:36:10;;;;;;;3.28;3.17;;;;;;;4.11;100.00;100411.84;6054002;23;20092;-73
2022/01/31 04:38:36;;;;;;;3.03;2.92;;;;;;;4.06;100.00;100392.94;6085679;23;20022;-72
2022/01/31 04:41:03;;;;;;;4.88;4.68;;;;;;;3.60;100.00;100317.28;6071493;23;20049;-73
2022/01/31 04:43:30;;;;;;;3.25;3.15;;;;;;;4.24;100.00;100417.53;6080538;23;20089;-73
2022/01/31 04:46:00;;;;;;;4.22;4.05;;;;;;;3.87;100.00;100350.25;5952528;23;20344;-73
2022/01/31 04:48:28;;;;;;;2.90;2.80;;;;;;;4.12;100.00;100391.91;6108754;23;20032;-73
2022/01/31 04:50:54;;;;;;;3.05;2.95;;;;;;;4.11;100.00;100401.47;6056982;23;20059;-73
2022/01/31 04:53:21;;;;;;;2.80;2.70;;;;;;;4.29;100.00;100394.84;6079581;23;20022;-73
2022/01/31 04:55:48;;;;;;;3.00;2.90;;;;;;;4.22;100.00;100372.56;6056931;23;20029;-73
2022/01/31 04:58:14;;;;;;;3.60;3.50;;;;;;;4.38;100.00;100409.31;6082174;23;20080;-72
2022/01/31 05:00:41;;;;;;;3.17;3.08;;;;;;;4.43;100.00;100389.22;6063912;23;20040;-73
2022/01/31 05:03:13;;;;;;;4.78;4.57;;;;;;;3.85;100.00;100295.81;6074148;23;20036;-73
2022/01/31 05:05:40;;;;;;;3.10;3.00;;;;;;;4.23;100.00;100350.03;6063490;23;20030;-73
2022/01/31 05:08:08;;;;;;;2.90;2.80;;;;;;;4.42;100.00;100386.69;6085315;23;20041;-73
2022/01/31 05:10:38;;;;;;;2.95;2.85;;;;;;;4.48;100.00;100383.88;6055143;23;20322;-73
2022/01/31 05:13:04;;;;;;;3.30;3.20;;;;;;;4.32;100.00;100354.94;6067285;23;20029;-73
2022/01/31 05:15:30;;;;;;;2.95;2.85;;;;;;;4.16;100.00;100326.84;6117341;23;20052;-74
2022/01/31 05:17:57;;;;;;;4.35;4.18;;;;;;;4.51;100.00;100388.97;6088561;23;20025;-74
2022/01/31 05:20:23;;;;;;;3.10;3.00;;;;;;;4.06;100.00;100290.84;6109184;23;20141;-74
2022/01/31 05:22:50;;;;;;;3.03;2.92;;;;;;;4.17;100.00;100312.13;6088433;23;20025;-73
2022/01/31 05:25:16;;;;;;;3.60;3.50;;;;;;;3.37;100.00;100171.91;6063919;23;20033;-74
2022/01/31 05:27:43;;;;;;;3.08;2.97;;;;;;;3.93;100.00;100248.81;6115871;23;20498;-73
2022/01/31 05:30:10;;;;;;;5.25;5.05;;;;;;;4.15;100.00;100278.41;6112404;23;20005;-73
2022/01/31 05:32:36;;;;;;;3.08;2.97;;;;;;;4.11;100.00;100255.16;6084617;23;20418;-73
2022/01/31 05:35:09;;;;;;;5.03;4.82;;;;;;;4.55;100.00;100325.59;6124897;23;20009;-74
2022/01/31 05:37:35;;;;;;;3.10;3.00;;;;;;;4.18;100.00;100261.88;6099063;23;20082;-74
2022/01/31 05:40:04;;;;;;;3.33;3.22;;;;;;;3.11;100.00;100093.16;6097349;23;20417;-74
2022/01/31 05:42:31;;;;;;;3.10;3.00;;;;;;;4.74;100.00;100342.28;6089516;23;20567;-73
2022/01/31 05:44:57;;;;;;;3.83;3.67;;;;;;;4.77;99.92;100339.59;6121288;23;20033;-74
2022/01/31 05:47:24;;;;;;;3.30;3.20;;;;;;;4.59;99.48;100325.47;6091142;23;20028;-73
2022/01/31 05:49:51;;;;;;;3.20;3.10;;;;;;;4.24;99.29;100277.25;6089131;23;20033;-74
2022/01/31 05:52:18;;;;;;;3.30;3.20;;;;;;;4.78;99.55;100349.06;6086423;23;20026;-73
2022/01/31 05:54:45;;;;;;;3.03;2.92;;;;;;;4.75;99.70;100346.59;6086329;23;20034;-73
2022/01/31 05:57:11;;;;;;;5.03;4.82;;;;;;;4.58;99.81;100325.50;6082683;23;20092;-73
2022/01/31 05:59:39;;;;;;;3.20;3.10;;;;;;;4.45;99.07;100312.09;6076549;23;20030;-74
2022/01/31 06:02:07;;;;;;;4.95;4.75;;;;;;;4.68;99.49;100339.03;6088149;23;21294;-73
2022/01/31 06:04:33;;;;;;;3.10;3.00;;;;;;;4.77;99.32;100343.91;6090695;23;20459;-73
2022/01/31 06:07:01;;;;;;;4.97;4.78;;;;;;;4.82;98.80;100342.03;6070609;23;20391;-73
2022/01/31 06:09:30;;;;;;;3.10;3.00;;;;;;;4.70;98.49;100316.44;6082901;23;20025;-73
2022/01/31 06:11:56;;;;;;;3.72;3.60;;;;;;;4.40;97.14;100267.22;6117810;23;20020;-73
2022/01/31 06:14:24;;;;;;;3.00;2.90;;;;;;;4.25;97.19;100258.19;6059705;23;20014;-74
2022/01/31 06:16:50;;;;;;;3.13;3.03;;;;;;;4.58;96.94;100295.16;6116587;23;20014;-74
2022/01/31 06:19:16;;;;;;;3.30;3.20;;;;;;;4.43;96.10;100254.13;6086909;23;20424;-73
2022/01/31 06:21:43;;;;;;;3.15;3.05;;;;;;;4.54;94.40;100271.94;6085246;23;20620;-73
2022/01/31 06:24:10;;;;;;;5.15;4.95;;;;;;;4.93;94.08;100326.91;6101782;23;20017;-74
2022/01/31 06:26:39;;;;;;;3.30;3.20;;;;;;;4.83;92.99;100324.66;6099543;23;20504;-73
2022/01/31 06:29:06;;;;;;;6.35;6.05;;;;;;;4.07;93.73;100197.31;6093678;23;20084;-74
2022/01/31 06:31:32;;;;;;;3.35;3.25;;;;;;;4.68;92.48;100274.91;6092432;23;20022;-74
2022/01/31 06:34:01;;;;;;;4.68;4.47;;;;;;;4.53;92.74;100260.72;6105843;23;20029;-72
2022/01/31 06:36:28;;;;;;;3.20;3.10;;;;;;;4.84;91.94;100297.78;6094890;23;20041;-73
2022/01/31 06:38:54;;;;;;;3.25;3.15;;;;;;;4.14;90.99;100177.19;6120353;23;20021;-73
2022/01/31 06:41:23;;;;;;;3.10;3.00;;;;;;;4.62;89.05;100236.13;6096803;23;20084;-73
2022/01/31 06:43:51;;;;;;;3.10;3.00;;;;;;;4.45;89.61;100213.34;6087679;23;20027;-73
2022/01/31 06:46:18;;;;;;;3.60;3.50;;;;;;;4.98;87.98;100285.13;6112052;23;20025;-72
2022/01/31 06:48:45;;;;;;;3.25;3.15;;;;;;;4.71;88.92;100240.16;6084955;23;20010;-73
2022/01/31 06:51:12;;;;;;;5.05;4.85;;;;;;;4.92;89.68;100294.00;6111797;23;20037;-73
2022/01/31 06:53:40;;;;;;;3.20;3.10;;;;;;;4.92;88.48;100290.56;6086148;23;20022;-73
2022/01/31 06:56:06;;;;;;;5.78;5.53;;;;;;;4.87;90.49;100295.94;6101325;23;20029;-73
2022/01/31 06:58:33;;;;;;;3.08;2.97;;;;;;;4.67;90.92;100281.03;6084101;23;20018;-73
2022/01/31 07:01:00;;;;;;;4.53;4.32;;;;;;;4.40;92.46;100236.88;6090578;23;20030;-74
2022/01/31 07:03:26;;;;;;;3.17;3.08;;;;;;;4.70;92.21;100293.91;6098554;23;20022;-73
2022/01/31 07:05:53;;;;;;;3.20;3.10;;;;;;;4.68;92.92;100281.88;6091769;23;20617;-74
2022/01/31 07:08:19;;;;;;;3.33;3.22;;;;;;;4.38;93.81;100258.63;6087544;23;20024;-74
2022/01/31 07:10:52;;;;;;;3.30;3.20;;;;;;;4.48;93.89;100291.19;6134930;23;20081;-75
2022/01/31 07:13:35;;;;;;;4.13;3.92;;;;;;;3.99;95.07;100238.28;6095826;23;20039;-75
2022/01/31 07:16:03;;;;;;;5.35;5.15;;;;;;;4.36;96.50;100312.38;6072775;23;20427;-75
2022/01/31 07:18:30;;;;;;;3.50;3.40;;;;;;;3.93;96.85;100278.25;6103167;23;20041;-70
2022/01/31 07:20:58;;;;;;;3.70;3.58;;;;;;;3.68;97.18;100240.97;6073919;23;20053;-71
2022/01/31 07:23:28;;;;;;;3.00;2.90;;;;;;;3.44;97.54;100217.47;6101761;23;20028;-71
2022/01/31 07:25:55;;;;;;;3.05;2.95;;;;;;;3.46;98.01;100246.81;6081194;23;20026;-72
2022/01/31 07:28:22;;;;;;;3.00;2.90;;;;;;;3.95;98.48;100337.94;6098572;23;20068;-72
2022/01/31 07:30:50;;;;;;;2.88;2.78;;;;;;;3.94;98.44;100318.03;6078153;23;20055;-70
2022/01/31 07:33:19;;;;;;;3.10;3.00;;;;;;;3.88;97.92;100306.09;6080487;23;20029;-71
2022/01/31 07:35:48;;;;;;;2.95;2.85;;;;;;;3.32;98.24;100243.78;6044584;23;20080;-70
2022/01/31 07:38:16;;;;;;;3.63;3.53;;;;;;;3.69;99.64;100299.75;6105833;23;20029;-72
2022/01/31 07:40:43;;;;;;;2.90;2.80;;;;;;;3.86;98.93;100309.63;6074301;23;20034;-71
2022/01/31 07:43:10;;;;;;;4.75;4.55;;;;;;;3.51;99.70;100270.88;6102338;23;20716;-71
2022/01/31 07:45:36;;;;;;;3.00;2.90;;;;;;;3.04;99.21;100200.50;6073123;23;20037;-72
2022/01/31 07:48:03;;;;;;;4.47;4.28;;;;;;;3.58;99.98;100259.41;6090036;23;20026;-73
2022/01/31 07:50:32;;;;;;;3.00;2.90;;;;;;;3.54;99.43;100238.81;6070881;23;20025;-71
2022/01/31 07:52:59;;;;;;;3.22;3.13;;;;;;;3.83;99.00;100286.34;6064150;23;20028;-72
2022/01/31 07:55:25;;;;;;;3.20;3.10;;;;;;;3.92;98.73;100314.63;6090620;23;20029;-71
2022/01/31 07:57:51;;;;;;;3.30;3.20;;;;;;;3.50;99.00;100232.84;6075798;23;20033;-73
2022/01/31 08:00:19;;;;;;;3.03;2.92;;;;;;;3.53;98.75;100235.38;6107457;23;20022;-73
2022/01/31 08:02:45;;;;;;;3.10;3.00;;;;;;;3.73;98.48;100258.13;6081022;23;20006;-71
2022/01/31 08:05:12;;;;;;;4.93;4.72;;;;;;;3.91;98.19;100246.31;6090389;23;20017;-69
2022/01/31 08:07:38;;;;;;;3.63;3.42;;;;;;;3.16;97.51;100113.75;6069140;23;20020;-71
2022/01/31 08:10:06;;;;;;;6.30;5.90;;;;;;;4.30;95.81;100294.41;6100362;23;20020;-69
2022/01/31 08:12:35;;;;;;;3.05;2.95;;;;;;;4.29;96.62;100287.47;6062856;23;20665;-70
2022/01/31 08:15:06;;;;;;;4.63;4.43;;;;;;;4.23;95.47;100265.19;6102990;23;20028;-70
2022/01/31 08:17:34;;;;;;;3.10;3.00;;;;;;;4.36;95.68;100292.44;6058324;23;20022;-68
2022/01/31 08:20:00;;;;;;;4.05;3.90;;;;;;;3.91;95.81;100227.25;6090234;23;20036;-68
2022/01/31 08:22:27;;;;;;;3.15;3.05;;;;;;;4.20;93.86;100228.91;6077333;23;20034;-69
2022/01/31 08:24:53;;;;;;;3.20;3.10;;;;;;;0.80;92.25;99729.03;6097432;23;20029;-69
2022/01/31 08:27:22;;;;;;;3.17;3.08;;;;;;;4.00;92.79;100233.00;6048837;23;20022;-69
2022/01/31 08:29:48;;;;;;;3.00;2.90;;;;;;;3.77;93.85;100179.25;6091473;23;20032;-70
2022/01/31 08:32:22;;;;;;;4.05;3.85;;;;;;;4.40;93.11;100294.03;6074420;23;20022;-68
2022/01/31 08:37:37;;;;;;;3.00;2.90;;;;;;;4.24;92.97;100256.47;6072755;23;20038;-69
2022/01/31 08:40:04;;;;;;;4.55;4.35;;;;;;;4.31;93.77;100283.97;6086235;23;20036;-70
2022/01/31 08:42:31;;;;;;;3.20;3.10;;;;;;;4.22;94.65;100247.03;6061960;23;20073;-67
2022/01/31 08:44:57;;;;;;;3.63;3.50;;;;;;;4.05;94.82;100279.63;6101465;23;20041;-71
2022/01/31 08:47:24;;;;;;;3.00;2.90;;;;;;;3.81;95.61;100242.31;6066341;23;20034;-75
2022/01/31 08:49:50;;;;;;;3.10;3.00;;;;;;;4.05;96.83;100310.78;6098146;23;20037;-74
2022/01/31 08:52:17;;;;;;;3.35;3.25;;;;;;;3.52;97.63;100205.13;6091846;23;20014;-72
2022/01/31 08:54:43;;;;;;;3.10;3.00;;;;;;;3.56;98.05;100211.91;6093770;23;20013;-73
2022/01/31 08:57:10;;;;;;;5.10;4.90;;;;;;;3.93;98.94;100304.22;6057945;23;20043;-73
2022/01/31 08:59:43;;;;;;;3.10;3.00;;;;;;;3.93;98.87;100278.25;6090222;23;20218;-70
2022/01/31 09:02:16;;;;;;;4.95;4.75;;;;;;;3.97;98.03;100285.03;6071323;23;20012;-71
2022/01/31 09:04:48;;;;;;;3.05;2.95;;;;;;;3.62;97.31;100225.59;6091119;23;20095;-70
2022/01/31 09:07:20;;;;;;;3.10;3.00;;;;;;;3.99;98.17;100300.59;6057319;23;20010;-70
2022/01/31 09:09:50;;;;;;;3.20;3.10;;;;;;;3.48;97.91;100215.66;6087184;23;20025;-67
2022/01/31 09:12:17;;;;;;;3.55;3.38;;;;;;;3.96;98.95;100296.31;6059969;23;20383;-69
2022/01/31 09:14:45;;;;;;;2.70;2.60;;;;;;;3.91;98.98;100254.09;6097343;23;20033;-68
2022/01/31 09:17:12;;;;;;;3.30;3.20;;;;;;;3.44;98.42;100194.13;6079261;23;20018;-68
2022/01/31 09:19:39;;;;;;;3.20;3.10;;;;;;;3.74;98.29;100262.38;6079278;23;20411;-72
2022/01/31 09:22:06;;;;;;;4.65;4.45;;;;;;;4.04;98.47;100285.69;6085472;23;20065;-68
2022/01/31 09:24:37;;;;;;;3.20;3.10;;;;;;;3.77;98.14;100248.50;6082242;23;20577;-68
2022/01/31 09:27:08;;;;;;;4.97;4.77;;;;;;;3.73;98.56;100224.38;6111303;23;20021;-68
2022/01/31 09:29:35;;;;;;;3.13;3.03;;;;;;;3.93;97.76;100254.88;6081322;23;20637;-68
2022/01/31 09:32:04;;;;;;;4.80;4.60;;;;;;;3.95;98.46;100271.25;6082799;23;20018;-69
2022/01/31 09:34:31;;;;;;;3.13;3.03;;;;;;;3.98;97.88;100265.97;6095326;23;20092;-70
2022/01/31 09:37:00;;;;;;;4.20;4.03;;;;;;;3.95;98.73;100280.81;6069941;23;20699;-70
2022/01/31 09:39:27;;;;;;;3.20;3.10;;;;;;;3.82;98.91;100254.38;6125548;23;20012;-70
2022/01/31 09:41:56;;;;;;;3.28;3.17;;;;;;;3.57;98.48;100205.00;6081837;23;20593;-71
2022/01/31 09:49:19;;;;;;;3.30;3.20;;;;;;;3.97;99.71;100256.50;6083437;23;20455;-70
2022/01/31 09:51:46;;;;;;;3.28;3.17;;;;;;;4.03;98.90;100262.38;6109545;23;20001;-71
2022/01/31 09:54:14;;;;;;;3.90;3.75;;;;;;;4.06;98.98;100264.88;6078744;23;20079;-70
2022/01/31 09:56:43;;;;;;;3.13;3.03;;;;;;;3.92;98.29;100252.34;6085240;23;20040;-71
2022/01/31 09:59:12;;;;;;;6.75;6.45;;;;;;;4.02;98.48;100252.91;6089812;23;20407;-71
2022/01/31 10:01:43;;;;;;;3.10;3.00;;;;;;;3.94;98.56;100260.91;6086878;23;20026;-70
2022/01/31 10:04:14;;;;;;;4.85;4.65;;;;;;;3.97;99.26;100248.69;6098253;23;20189;-69
2022/01/31 10:06:43;;;;;;;3.30;3.20;;;;;;;3.98;98.74;100259.94;6089448;23;20034;-68
2022/01/31 10:09:14;;;;;;;4.65;4.45;;;;;;;3.87;99.42;100236.03;6102175;23;20009;-69
2022/01/31 10:11:49;;;;;;;2.92;2.83;;;;;;;4.07;98.71;100259.66;6093218;23;20036;-70
2022/01/31 10:17:32;;;;;;;5.38;5.18;;;;;;;4.00;100.00;100278.91;6081584;23;20018;-69
2022/01/31 10:20:24;;;;;;;4.75;4.55;;;;;;;3.96;100.00;100288.53;6088886;23;20017;-70
2022/01/31 10:22:51;;;;;;;3.10;3.00;;;;;;;3.46;100.00;100199.28;6062581;23;20036;-69
2022/01/31 10:25:20;;;;;;;3.00;2.90;;;;;;;3.95;99.68;100276.47;6110030;23;20017;-67
2022/01/31 10:28:14;;;;;;;3.30;3.20;;;;;;;3.87;98.54;100275.84;6063554;23;20025;-68
2022/01/31 10:30:44;;;;;;;3.00;2.90;;;;;;;3.57;99.34;100246.50;6103952;23;20059;-69
2022/01/31 10:33:12;;;;;;;4.95;4.75;;;;;;;3.83;100.00;100271.66;6067786;23;20013;-67
2022/01/31 10:35:40;;;;;;;3.50;3.40;;;;;;;3.91;100.00;100323.31;6090041;23;20025;-69
2022/01/31 10:38:11;;;;;;;5.40;5.20;;;;;;;3.96;99.93;100300.66;6071205;23;20017;-68
2022/01/31 10:46:32;;;;;;;3.20;3.10;;;;;;;3.86;100.00;100279.31;6094554;23;20021;-68
2022/01/31 10:56:50;;;;;;;3.30;3.20;;;;;;;4.26;98.59;100318.78;6094624;23;20014;-66
2022/01/31 10:59:18;;;;;;;3.20;3.10;;;;;;;3.79;97.62;100236.31;6080533;23;20264;-67
2022/01/31 11:01:51;;;;;;;2.80;2.70;;;;;;;4.24;97.98;100321.41;6102225;23;20013;-66
2022/01/31 11:04:39;;;;;;;3.10;3.00;;;;;;;4.33;98.92;100326.31;6080488;23;20026;-66
2022/01/31 11:07:10;;;;;;;5.22;5.03;;;;;;;4.29;99.26;100335.13;6109586;23;20039;-67
2022/01/31 11:09:38;;;;;;;3.00;2.90;;;;;;;4.14;100.00;100318.25;6087805;23;20357;-67
2022/01/31 11:12:08;;;;;;;4.93;4.72;;;;;;;4.31;100.00;100338.50;6108791;23;20036;-66
2022/01/31 11:14:40;;;;;;;3.10;3.00;;;;;;;4.28;99.52;100328.22;6087891;23;20029;-67
2022/01/31 11:17:10;;;;;;;5.07;4.88;;;;;;;4.20;100.00;100346.63;6092272;23;20050;-67
2022/01/31 11:19:39;;;;;;;3.00;2.90;;;;;;;4.11;99.95;100349.53;6087233;23;20093;-66
2022/01/31 11:22:09;;;;;;;4.95;4.75;;;;;;;4.24;99.48;100342.19;6103913;23;20025;-66
2022/01/31 11:24:48;;;;;;;3.10;3.00;;;;;;;2.62;98.99;100099.81;6084710;23;20030;-67
2022/01/31 11:27:19;;;;;;;4.03;3.83;;;;;;;3.76;99.79;100311.66;6109011;23;20017;-67
2022/01/31 11:29:48;;;;;;;3.00;2.90;;;;;;;4.00;99.70;100299.66;6074506;23;20014;-66
2022/01/31 11:32:15;;;;;;;3.92;3.75;;;;;;;3.56;99.73;100274.19;6118409;23;20146;-68
2022/01/31 11:34:44;;;;;;;3.17;3.08;;;;;;;4.27;100.00;100365.50;6078573;23;20038;-68
2022/01/31 11:37:13;;;;;;;5.03;4.82;;;;;;;4.38;100.00;100362.53;6073930;23;20045;-69
2022/01/31 11:39:42;;;;;;;3.00;2.90;;;;;;;3.90;98.24;100313.84;6078347;23;20647;-69
2022/01/31 11:42:09;;;;;;;4.85;4.65;;;;;;;4.23;98.79;100356.09;6096625;23;20022;-69
2022/01/31 11:44:57;;;;;;;3.15;3.05;;;;;;;4.33;98.95;100396.47;6085557;23;20014;-68
2022/01/31 11:47:25;;;;;;;3.03;2.92;;;;;;;4.30;99.23;100391.34;6112694;23;20812;-68
2022/01/31 11:49:55;;;;;;;3.00;2.90;;;;;;;3.82;98.24;100331.41;6081814;23;20034;-68
2022/01/31 11:52:24;;;;;;;4.57;4.32;;;;;;;4.29;100.00;100405.25;6103334;23;20029;-68
2022/01/31 11:55:00;;;;;;;3.30;3.20;;;;;;;4.33;98.93;100393.00;6081728;23;20049;-69
2022/01/31 11:57:30;;;;;;;3.03;2.92;;;;;;;4.24;98.00;100381.16;6078480;23;20042;-69
2022/01/31 12:00:05;;;;;;;3.15;3.05;;;;;;;4.45;98.57;100428.13;6081368;23;20034;-69
2022/01/31 12:02:39;;;;;;;3.10;3.00;;;;;;;4.49;97.18;100428.00;6111652;23;20090;-69
2022/01/31 12:05:08;;;;;;;4.90;4.70;;;;;;;4.36;98.20;100427.53;6084786;23;20170;-69
2022/01/31 12:07:42;;;;;;;2.92;2.83;;;;;;;4.39;98.83;100430.03;6106259;23;20030;-69